Time;durP1;ratioP1;P1;durP2;ratioP2;P2;SDS_P1;SDS_P2;PMS_P1;PMS_P2;Temp;Humidity;BMP_temperature;BMP_pressure;BME280_temperature;BME280_humidity;BME280_pressure;Samples;Min_cycle;Max_cycle;Signal;HPM_P1;HPM_P2
2023/05/29 00:02:44;;;;;;;14.88;11.48;;;;;;;-140.66;100.00;55571.53;5100216;28;20038;-82
2023/05/29 00:05:29;;;;;;;17.70;13.38;;;;;;;-140.66;100.00;55571.53;5102598;28;20055;-82
2023/05/29 00:08:15;;;;;;;18.63;12.98;;;;;;;-140.66;100.00;55571.53;5085445;28;20049;-82
2023/05/29 00:11:01;;;;;;;16.73;13.48;;;;;;;-140.66;100.00;55571.53;5098555;28;20028;-83
2023/05/29 00:13:47;;;;;;;18.38;13.20;;;;;;;-140.66;100.00;55571.53;5084537;28;20108;-83
2023/05/29 00:16:32;;;;;;;16.50;12.90;;;;;;;-140.66;100.00;55571.53;5097083;28;20024;-83
2023/05/29 00:19:19;;;;;;;17.42;13.43;;;;;;;-140.66;100.00;55571.53;5088422;28;20028;-83
2023/05/29 00:22:05;;;;;;;17.42;12.77;;;;;;;-140.66;100.00;55571.53;5111231;28;20128;-82
2023/05/29 00:24:50;;;;;;;17.15;13.23;;;;;;;-140.66;100.00;55571.53;5111095;28;20028;-82
2023/05/29 00:27:36;;;;;;;19.98;14.63;;;;;;;-140.66;100.00;55571.53;5111203;28;20054;-82
2023/05/29 00:30:22;;;;;;;20.55;15.18;;;;;;;-140.66;100.00;55571.53;5113570;27;20028;-82
2023/05/29 00:33:08;;;;;;;23.02;16.00;;;;;;;-140.66;100.00;55571.53;5112489;28;20024;-81
2023/05/29 00:35:54;;;;;;;25.65;16.58;;;;;;;-140.66;100.00;55571.53;5098801;28;20058;-81
2023/05/29 00:38:39;;;;;;;20.00;16.35;;;;;;;-140.66;100.00;55571.53;5113202;28;20043;-82
2023/05/29 00:41:26;;;;;;;23.33;16.35;;;;;;;-140.66;100.00;55571.53;5098689;28;20016;-82
2023/05/29 00:44:11;;;;;;;24.13;17.38;;;;;;;-140.66;100.00;55571.53;5098264;28;20064;-82
2023/05/29 00:46:58;;;;;;;21.95;16.75;;;;;;;-140.66;100.00;55571.53;5112609;28;20030;-82
2023/05/29 00:49:44;;;;;;;22.15;16.95;;;;;;;-140.66;100.00;55571.53;5101695;28;20012;-82
2023/05/29 00:52:30;;;;;;;20.58;16.38;;;;;;;-140.66;100.00;55571.53;5100751;28;20020;-82
2023/05/29 00:55:16;;;;;;;21.50;17.00;;;;;;;-140.66;100.00;55571.53;5094513;28;20027;-81
2023/05/29 00:58:02;;;;;;;26.55;18.23;;;;;;;-140.66;100.00;55571.53;5102248;28;20028;-82
2023/05/29 01:00:48;;;;;;;24.67;16.83;;;;;;;-140.66;100.00;55571.53;5105964;28;20083;-82
2023/05/29 01:03:37;;;;;;;23.85;17.48;;;;;;;-140.66;100.00;55571.53;5111313;28;20079;-82
2023/05/29 01:06:23;;;;;;;23.17;17.45;;;;;;;-140.66;100.00;55571.53;5114423;28;20008;-81
2023/05/29 01:09:09;;;;;;;24.02;18.25;;;;;;;-140.66;100.00;55571.53;5101008;28;20038;-81
2023/05/29 01:12:26;;;;;;;23.50;17.63;;;;;;;-140.66;100.00;55571.53;5119063;28;20054;-82
2023/05/29 01:15:18;;;;;;;28.30;18.50;;;;;;;-140.66;100.00;55571.53;5104662;28;20024;-82
2023/05/29 01:18:34;;;;;;;25.65;17.45;;;;;;;-140.66;100.00;55571.53;5118388;27;20046;-82
2023/05/29 01:21:37;;;;;;;30.25;18.15;;;;;;;-140.66;100.00;55571.53;5084961;28;20036;-82
2023/05/29 01:24:50;;;;;;;20.25;16.90;;;;;;;-140.66;100.00;55571.53;5096827;28;20035;-82
2023/05/29 01:27:38;;;;;;;23.42;16.80;;;;;;;-140.66;100.00;55571.53;5112997;28;20040;-82
2023/05/29 01:30:25;;;;;;;24.75;17.20;;;;;;;-140.66;100.00;55571.53;5137026;23;20040;-83
2023/05/29 01:33:11;;;;;;;22.05;17.40;;;;;;;-140.66;100.00;55571.53;5092478;28;20025;-83
2023/05/29 01:35:57;;;;;;;23.08;16.65;;;;;;;-140.66;100.00;55571.53;5089984;28;20012;-82
2023/05/29 01:38:43;;;;;;;20.67;16.50;;;;;;;-140.66;100.00;55571.53;5094800;28;20120;-82
2023/05/29 01:41:29;;;;;;;19.50;15.45;;;;;;;-140.66;100.00;55571.53;5089332;28;20031;-83
2023/05/29 01:44:17;;;;;;;21.02;15.52;;;;;;;-140.66;100.00;55571.53;5084374;28;20031;-82
2023/05/29 01:47:04;;;;;;;21.98;16.00;;;;;;;-140.66;100.00;55571.53;5101983;28;20345;-81
2023/05/29 01:49:52;;;;;;;20.48;15.20;;;;;;;-140.66;100.00;55571.53;5092319;28;20047;-81
2023/05/29 01:52:37;;;;;;;20.50;15.25;;;;;;;-140.66;100.00;55571.53;5101487;28;20023;-81
2023/05/29 01:55:23;;;;;;;18.95;14.60;;;;;;;-140.66;100.00;55571.53;5101721;28;20067;-81
2023/05/29 01:58:10;;;;;;;20.55;14.77;;;;;;;-140.66;100.00;55571.53;5099027;28;20024;-81
2023/05/29 02:00:57;;;;;;;20.27;15.52;;;;;;;-140.66;100.00;55571.53;5114053;28;20119;-82
2023/05/29 02:03:43;;;;;;;20.55;15.20;;;;;;;-140.66;100.00;55571.53;5095233;28;20024;-82
2023/05/29 02:06:30;;;;;;;22.83;15.82;;;;;;;-140.66;100.00;55571.53;5093532;28;20360;-81
2023/05/29 02:09:17;;;;;;;23.02;16.38;;;;;;;-140.66;100.00;55571.53;5093369;28;20039;-81
2023/05/29 02:12:03;;;;;;;21.63;16.33;;;;;;;-140.66;100.00;55571.53;5105968;28;20097;-81
2023/05/29 02:14:49;;;;;;;24.92;17.15;;;;;;;-140.66;100.00;55571.53;5091056;28;20031;-81
2023/05/29 02:17:35;;;;;;;19.88;16.27;;;;;;;-140.66;100.00;55571.53;5108880;28;20123;-82
2023/05/29 02:20:21;;;;;;;24.92;17.25;;;;;;;-140.66;100.00;55571.53;5110429;28;20505;-82
2023/05/29 02:23:10;;;;;;;22.58;17.08;;;;;;;-140.66;100.00;55571.53;5105842;28;20084;-81
2023/05/29 02:25:55;;;;;;;21.02;15.65;;;;;;;-140.66;100.00;55571.53;5098198;28;20034;-82
2023/05/29 02:28:41;;;;;;;21.25;15.48;;;;;;;-140.66;100.00;55571.53;5113800;28;20024;-82
2023/05/29 02:31:27;;;;;;;19.85;15.00;;;;;;;-140.66;100.00;55571.53;5126927;28;20044;-82
2023/05/29 02:34:13;;;;;;;19.20;14.70;;;;;;;-140.66;100.00;55571.53;5131786;28;20023;-82
2023/05/29 02:36:58;;;;;;;21.20;16.00;;;;;;;-140.66;100.00;55571.53;5108310;28;20034;-82
2023/05/29 02:39:44;;;;;;;22.27;14.55;;;;;;;-140.66;100.00;55571.53;5135286;27;20023;-82
2023/05/29 02:42:30;;;;;;;21.23;14.57;;;;;;;-140.66;100.00;55571.53;5125521;28;20118;-82
2023/05/29 02:45:16;;;;;;;22.38;16.20;;;;;;;-140.66;100.00;55571.53;5135353;28;20023;-81
2023/05/29 02:48:03;;;;;;;23.02;15.20;;;;;;;-140.66;100.00;55571.53;5118866;28;20024;-81
2023/05/29 02:50:49;;;;;;;24.25;15.52;;;;;;;-140.66;100.00;55571.53;5126920;28;20099;-81
2023/05/29 02:53:35;;;;;;;22.13;14.80;;;;;;;-140.66;100.00;55571.53;5115793;28;20036;-80
2023/05/29 02:56:23;;;;;;;21.13;14.80;;;;;;;-140.66;100.00;55571.53;5134737;28;20019;-82
2023/05/29 02:59:09;;;;;;;20.38;14.25;;;;;;;-140.66;100.00;55571.53;5121299;28;20028;-81
2023/05/29 03:01:55;;;;;;;19.75;14.40;;;;;;;-140.66;100.00;55571.53;5135601;28;20008;-81
2023/05/29 03:04:40;;;;;;;18.98;14.82;;;;;;;-140.66;100.00;55571.53;5138043;28;20054;-82
2023/05/29 03:07:26;;;;;;;20.05;14.63;;;;;;;-140.66;100.00;55571.53;5134238;28;20007;-81
2023/05/29 03:10:12;;;;;;;18.60;15.13;;;;;;;-140.66;100.00;55571.53;5131839;28;20050;-81
2023/05/29 03:12:58;;;;;;;20.50;14.68;;;;;;;-140.66;100.00;55571.53;5137539;28;20038;-81
2023/05/29 03:15:44;;;;;;;21.33;14.30;;;;;;;-140.66;100.00;55571.53;5140464;27;20055;-82
2023/05/29 03:18:30;;;;;;;17.55;14.60;;;;;;;-140.66;100.00;55571.53;5140958;27;20119;-82
2023/05/29 03:21:16;;;;;;;18.25;14.45;;;;;;;-140.66;100.00;55571.53;5139791;27;20015;-82
2023/05/29 03:24:02;;;;;;;17.98;14.55;;;;;;;-140.66;100.00;55571.53;5127268;28;20055;-81
2023/05/29 03:26:48;;;;;;;18.02;14.38;;;;;;;-140.66;100.00;55571.53;5138231;28;20031;-82
2023/05/29 03:29:34;;;;;;;19.92;14.50;;;;;;;-140.66;100.00;55571.53;5125377;28;20018;-82
2023/05/29 03:32:20;;;;;;;19.42;15.15;;;;;;;-140.66;100.00;55571.53;5141218;27;20042;-81
2023/05/29 03:35:06;;;;;;;20.75;15.40;;;;;;;-140.66;100.00;55571.53;5141021;27;20015;-82
2023/05/29 03:37:51;;;;;;;18.88;14.20;;;;;;;-140.66;100.00;55571.53;5141093;27;20462;-82
2023/05/29 03:40:37;;;;;;;19.33;15.65;;;;;;;-140.66;100.00;55571.53;5140633;27;20079;-82
2023/05/29 03:43:23;;;;;;;21.88;15.23;;;;;;;-140.66;100.00;55571.53;5126090;28;20004;-79
2023/05/29 03:46:09;;;;;;;21.75;16.27;;;;;;;-140.66;100.00;55571.53;5125232;28;20008;-80
2023/05/29 03:48:54;;;;;;;22.40;15.57;;;;;;;-140.66;100.00;55571.53;5124392;28;20019;-81
2023/05/29 03:51:40;;;;;;;21.45;15.68;;;;;;;-140.66;100.00;55571.53;5136420;28;20027;-83
2023/05/29 03:54:26;;;;;;;20.77;14.93;;;;;;;-140.66;100.00;55571.53;5126533;27;20494;-81
2023/05/29 03:57:12;;;;;;;18.00;14.85;;;;;;;-140.66;100.00;55571.53;5140692;27;20055;-80
2023/05/29 04:02:33;;;;;;;20.25;15.23;;;;;;;-140.66;100.00;55571.53;5093761;22;20050;-82
2023/05/29 04:05:18;;;;;;;26.50;15.77;;;;;;;-140.66;100.00;55571.53;5031400;28;20406;-81
2023/05/29 04:08:04;;;;;;;26.05;16.50;;;;;;;-140.66;100.00;55571.53;5025273;28;20036;-83
2023/05/29 04:10:53;;;;;;;22.35;15.93;;;;;;;-140.66;100.00;55571.53;5025957;28;20026;-81
2023/05/29 04:13:39;;;;;;;26.00;16.00;;;;;;;-140.66;100.00;55571.53;5025796;28;20037;-81
2023/05/29 04:16:25;;;;;;;20.13;14.95;;;;;;;-140.66;100.00;55571.53;5018092;28;20041;-83
2023/05/29 04:19:11;;;;;;;22.17;14.73;;;;;;;-140.66;100.00;55571.53;5016005;28;20114;-84
2023/05/29 04:21:56;;;;;;;23.15;15.77;;;;;;;-140.66;100.00;55571.53;5002302;28;20022;-80
2023/05/29 04:24:48;;;;;;;19.77;14.95;;;;;;;-140.66;100.00;55571.53;5016492;28;20037;-82
2023/05/29 04:27:38;;;;;;;24.02;16.75;;;;;;;-140.66;100.00;55571.53;5016542;28;20030;-81
2023/05/29 04:30:23;;;;;;;22.75;15.23;;;;;;;-140.66;100.00;55571.53;5002431;28;20339;-79
2023/05/29 04:33:12;;;;;;;19.75;15.88;;;;;;;-140.66;100.00;55571.53;5016351;28;20022;-85
2023/05/29 04:36:00;;;;;;;20.13;15.23;;;;;;;-140.66;100.00;55571.53;5002479;28;20025;-84
2023/05/29 04:38:47;;;;;;;20.20;15.90;;;;;;;-140.66;100.00;55571.53;5015528;28;20465;-84
2023/05/29 04:41:33;;;;;;;23.67;15.70;;;;;;;-140.66;100.00;55571.53;5016015;28;20394;-83
2023/05/29 04:44:19;;;;;;;20.02;14.52;;;;;;;-140.66;100.00;55571.53;5014846;28;20363;-84
2023/05/29 04:47:06;;;;;;;20.83;14.55;;;;;;;-140.66;100.00;55571.53;5028613;28;20022;-84
2023/05/29 04:49:52;;;;;;;19.27;14.40;;;;;;;-140.66;100.00;55571.53;5028460;28;20029;-84
2023/05/29 04:52:38;;;;;;;21.95;14.38;;;;;;;-140.66;100.00;55571.53;5015164;28;20022;-84
2023/05/29 04:55:23;;;;;;;21.92;14.13;;;;;;;-140.66;100.00;55571.53;5014935;28;20034;-85
2023/05/29 04:58:11;;;;;;;20.17;14.60;;;;;;;-140.66;100.00;55571.53;5015079;28;20025;-84
2023/05/29 05:00:57;;;;;;;18.70;14.48;;;;;;;-140.66;100.00;55571.53;5027611;28;20053;-84
2023/05/29 05:03:44;;;;;;;17.80;14.00;;;;;;;-140.66;100.00;55571.53;5001485;28;20067;-84
2023/05/29 05:06:29;;;;;;;20.77;13.95;;;;;;;-140.66;100.00;55571.53;5001967;28;20109;-84
2023/05/29 05:09:15;;;;;;;19.02;13.63;;;;;;;-140.66;100.00;55571.53;5015043;28;20431;-84
2023/05/29 05:12:01;;;;;;;21.20;15.13;;;;;;;-140.66;100.00;55571.53;5015080;28;20029;-83
2023/05/29 05:14:47;;;;;;;22.40;15.43;;;;;;;-140.66;100.00;55571.53;5001283;28;20030;-83
2023/05/29 05:17:33;;;;;;;21.80;13.80;;;;;;;-140.66;100.00;55571.53;5001755;28;20029;-84
2023/05/29 05:20:18;;;;;;;19.67;13.70;;;;;;;-140.66;100.00;55571.53;5027485;28;20026;-84
2023/05/29 05:23:04;;;;;;;23.27;15.35;;;;;;;-140.66;100.00;55571.53;5000394;28;20041;-85
2023/05/29 05:25:50;;;;;;;21.27;14.75;;;;;;;-140.66;100.00;55571.53;5014631;28;20064;-84
2023/05/29 05:28:36;;;;;;;19.17;14.85;;;;;;;-140.66;100.00;55571.53;5027879;28;20076;-84
2023/05/29 05:31:22;;;;;;;19.25;14.45;;;;;;;-140.66;100.00;55571.53;5015132;28;20033;-84
2023/05/29 05:34:08;;;;;;;16.25;13.05;;;;;;;-140.66;100.00;55571.53;5001549;28;20033;-85
2023/05/29 05:36:53;;;;;;;20.17;13.35;;;;;;;-140.66;100.00;55571.53;5027960;28;20022;-84
2023/05/29 05:39:39;;;;;;;18.05;13.75;;;;;;;-140.66;100.00;55571.53;5014682;28;20080;-84
2023/05/29 05:42:25;;;;;;;17.20;13.50;;;;;;;-140.66;100.00;55571.53;5014333;28;20037;-84
2023/05/29 05:45:11;;;;;;;17.88;13.68;;;;;;;-140.66;100.00;55571.53;5027944;28;20033;-85
2023/05/29 05:47:57;;;;;;;18.13;12.35;;;;;;;-140.66;100.00;55571.53;5014658;28;20021;-85
2023/05/29 05:50:42;;;;;;;19.20;13.18;;;;;;;-140.66;100.00;55571.53;5027308;28;20054;-85
2023/05/29 05:53:28;;;;;;;16.23;12.80;;;;;;;-140.66;100.00;55571.53;5000507;28;20445;-85
2023/05/29 05:56:14;;;;;;;17.70;13.90;;;;;;;-140.66;100.00;55571.53;5015869;28;20034;-84
2023/05/29 05:59:00;;;;;;;21.85;13.32;;;;;;;-140.66;100.00;55571.53;5017322;28;20022;-86
2023/05/29 06:01:46;;;;;;;22.45;12.95;;;;;;;-140.66;100.00;55571.53;5030134;28;20057;-85
2023/05/29 06:04:32;;;;;;;20.65;14.25;;;;;;;-140.66;100.00;55571.53;5047334;28;20030;-83
2023/05/29 06:07:18;;;;;;;20.67;15.48;;;;;;;-140.66;100.00;55571.53;5022700;28;20034;-80
2023/05/29 06:10:04;;;;;;;35.22;22.90;;;;;;;-140.66;100.00;55571.53;5031277;28;20022;-85
2023/05/29 06:12:50;;;;;;;16.42;11.93;;;;;;;-140.66;100.00;55571.53;5003058;28;20037;-84
2023/05/29 06:15:36;;;;;;;19.15;13.02;;;;;;;-140.66;100.00;55571.53;5038025;28;20029;-85
2023/05/29 06:18:21;;;;;;;15.80;11.93;;;;;;;-140.66;100.00;55571.53;5014403;28;20049;-84
2023/05/29 06:21:09;;;;;;;17.23;11.73;;;;;;;-140.66;100.00;55571.53;5017548;28;20037;-85
2023/05/29 06:23:55;;;;;;;15.82;10.70;;;;;;;-140.66;100.00;55571.53;5015269;28;20072;-82
2023/05/29 06:26:41;;;;;;;16.05;11.50;;;;;;;-140.66;100.00;55571.53;5014539;28;20029;-75
2023/05/29 06:29:27;;;;;;;19.40;14.52;;;;;;;-140.66;100.00;55571.53;5014772;28;20030;-76
2023/05/29 06:32:12;;;;;;;15.50;10.93;;;;;;;-140.66;100.00;55571.53;5015493;28;20053;-77
2023/05/29 06:34:58;;;;;;;17.73;10.95;;;;;;;-140.66;100.00;55571.53;5015357;28;20521;-78
2023/05/29 06:37:45;;;;;;;19.10;10.70;;;;;;;-140.66;100.00;55571.53;5005694;28;20424;-77
2023/05/29 06:40:31;;;;;;;17.67;11.65;;;;;;;-140.66;100.00;55571.53;5030846;28;20033;-77
2023/05/29 06:43:17;;;;;;;22.08;12.45;;;;;;;-140.66;100.00;55571.53;5031023;28;20033;-76
2023/05/29 06:46:02;;;;;;;16.40;11.70;;;;;;;-140.66;100.00;55571.53;5016952;28;20022;-77
2023/05/29 06:48:48;;;;;;;15.48;11.10;;;;;;;-140.66;100.00;55571.53;5005802;28;20040;-75
2023/05/29 06:51:35;;;;;;;17.83;11.23;;;;;;;-140.66;100.00;55571.53;5014209;28;20029;-76
2023/05/29 06:54:20;;;;;;;17.63;10.23;;;;;;;-140.66;100.00;55571.53;5004391;28;20042;-76
2023/05/29 06:57:06;;;;;;;14.93;9.98;;;;;;;-140.66;100.00;55571.53;5018416;28;20033;-77
2023/05/29 06:59:52;;;;;;;18.73;10.57;;;;;;;-140.66;100.00;55571.53;5002807;28;20057;-77
2023/05/29 07:02:38;;;;;;;18.83;10.35;;;;;;;-140.66;100.00;55571.53;5016874;28;20474;-77
2023/05/29 07:05:23;;;;;;;11.93;9.32;;;;;;;-140.66;100.00;55571.53;5017812;28;20382;-78
2023/05/29 07:08:09;;;;;;;13.80;9.25;;;;;;;-140.66;100.00;55571.53;5031080;28;20021;-78
2023/05/29 07:10:55;;;;;;;23.23;11.45;;;;;;;-140.66;100.00;55571.53;5017776;28;20041;-82
2023/05/29 07:13:41;;;;;;;17.98;9.98;;;;;;;-140.66;100.00;55571.53;5017282;28;20454;-81
2023/05/29 07:16:27;;;;;;;12.00;9.32;;;;;;;-140.66;100.00;55571.53;5017272;28;20427;-81
2023/05/29 07:19:13;;;;;;;14.27;8.88;;;;;;;-140.66;100.00;55571.53;5003672;28;20080;-81
2023/05/29 07:22:00;;;;;;;20.20;11.15;;;;;;;-140.66;100.00;55571.53;5017525;28;20030;-81
2023/05/29 07:24:45;;;;;;;15.98;10.30;;;;;;;-140.66;100.00;55571.53;5016925;28;20022;-81
2023/05/29 07:27:31;;;;;;;18.27;10.57;;;;;;;-140.66;100.00;55571.53;5017122;28;20434;-80
2023/05/29 07:30:18;;;;;;;16.83;10.52;;;;;;;-140.66;100.00;55571.53;5016227;28;20382;-80
2023/05/29 07:33:03;;;;;;;14.25;9.70;;;;;;;-140.66;100.00;55571.53;5016781;28;20091;-83
2023/05/29 07:35:49;;;;;;;17.80;11.32;;;;;;;-140.66;100.00;55571.53;5017299;28;20030;-80
2023/05/29 07:38:35;;;;;;;13.20;10.07;;;;;;;-140.66;100.00;55571.53;5017335;28;20434;-82
2023/05/29 07:41:21;;;;;;;15.90;10.25;;;;;;;-140.66;100.00;55571.53;5016509;28;20037;-80
2023/05/29 07:44:07;;;;;;;12.23;9.25;;;;;;;-140.66;100.00;55571.53;5017399;28;20434;-81
2023/05/29 07:46:53;;;;;;;19.40;10.68;;;;;;;-140.66;100.00;55571.53;5016720;28;20029;-80
2023/05/29 07:49:38;;;;;;;11.77;9.38;;;;;;;-140.66;100.00;55571.53;5017227;28;20145;-82
2023/05/29 07:52:24;;;;;;;16.77;9.10;;;;;;;-140.66;100.00;55571.53;5017567;28;20031;-80
2023/05/29 07:55:10;;;;;;;13.23;9.63;;;;;;;-140.66;100.00;55571.53;5017696;28;20410;-81
2023/05/29 07:57:56;;;;;;;17.20;12.30;;;;;;;-140.66;100.00;55571.53;5017975;28;20029;-81
2023/05/29 08:00:44;;;;;;;20.15;11.07;;;;;;;-140.66;100.00;55571.53;5017163;28;20503;-82
2023/05/29 08:03:30;;;;;;;17.38;9.85;;;;;;;-140.66;100.00;55571.53;5018144;28;20084;-80
2023/05/29 08:06:16;;;;;;;12.63;10.00;;;;;;;-140.66;100.00;55571.53;5016821;28;20057;-80
2023/05/29 08:09:03;;;;;;;16.75;10.25;;;;;;;-140.66;100.00;55571.53;5016274;28;20036;-79
2023/05/29 08:11:59;;;;;;;19.42;11.30;;;;;;;-140.66;100.00;55571.53;5002006;28;20042;-80
2023/05/29 08:14:45;;;;;;;18.33;10.52;;;;;;;-140.66;100.00;55571.53;5002458;28;20025;-80
2023/05/29 08:17:36;;;;;;;11.70;9.60;;;;;;;-140.66;100.00;55571.53;5016413;28;20030;-82
2023/05/29 08:20:22;;;;;;;15.77;10.50;;;;;;;-140.66;100.00;55571.53;5015787;28;20033;-80
2023/05/29 08:23:08;;;;;;;20.02;10.95;;;;;;;-140.66;100.00;55571.53;5015911;28;20029;-80
2023/05/29 08:25:54;;;;;;;16.52;11.40;;;;;;;-140.66;100.00;55571.53;5028760;28;20022;-80
2023/05/29 08:28:40;;;;;;;13.52;10.02;;;;;;;-140.66;100.00;55571.53;5015766;28;20052;-81
2023/05/29 08:31:26;;;;;;;18.20;9.77;;;;;;;-140.66;100.00;55571.53;5016051;28;20045;-81
2023/05/29 08:34:13;;;;;;;15.40;10.20;;;;;;;-140.66;100.00;55571.53;5016821;28;20033;-81
2023/05/29 08:36:59;;;;;;;16.77;10.25;;;;;;;-140.66;100.00;55571.53;5015471;28;20029;-81
2023/05/29 08:39:45;;;;;;;12.35;9.45;;;;;;;-140.66;100.00;55571.53;5015767;28;20117;-82
2023/05/29 08:42:36;;;;;;;14.13;10.15;;;;;;;-140.66;100.00;55571.53;5001360;28;20033;-82
2023/05/29 08:45:23;;;;;;;15.93;9.23;;;;;;;-140.66;100.00;55571.53;5015620;28;20030;-81
2023/05/29 08:48:11;;;;;;;14.70;8.88;;;;;;;-140.66;100.00;55571.53;5015759;28;20088;-76
2023/05/29 08:50:58;;;;;;;14.90;8.90;;;;;;;-140.66;100.00;55571.53;5015522;28;20025;-77
2023/05/29 08:53:46;;;;;;;12.35;8.82;;;;;;;-140.66;100.00;55571.53;5015456;28;20037;-76
2023/05/29 08:56:31;;;;;;;15.05;8.32;;;;;;;-140.66;100.00;55571.53;5015476;28;20514;-76
2023/05/29 08:59:22;;;;;;;15.55;8.65;;;;;;;-140.66;100.00;55571.53;5018561;28;20069;-81
2023/05/29 09:02:11;;;;;;;11.63;7.75;;;;;;;-140.66;100.00;55571.53;5015933;28;20049;-82
2023/05/29 09:04:57;;;;;;;10.63;7.68;;;;;;;-140.66;100.00;55571.53;5004903;28;20029;-81
2023/05/29 09:07:43;;;;;;;10.40;7.20;;;;;;;-140.66;100.00;55571.53;5032518;28;20022;-82
2023/05/29 09:10:29;;;;;;;18.67;7.78;;;;;;;-140.66;100.00;55571.53;5020407;28;20048;-80
2023/05/29 09:13:15;;;;;;;14.27;8.05;;;;;;;-140.66;100.00;55571.53;5016160;28;20026;-81
2023/05/29 09:16:04;;;;;;;9.35;7.82;;;;;;;-140.66;100.00;55571.53;5015202;28;20025;-81
2023/05/29 09:18:50;;;;;;;11.50;7.40;;;;;;;-140.66;100.00;55571.53;5002592;28;20068;-76
2023/05/29 09:21:36;;;;;;;10.48;8.45;;;;;;;-140.66;100.00;55571.53;5015015;28;20064;-76
2023/05/29 09:24:21;;;;;;;10.45;8.00;;;;;;;-140.66;100.00;55571.53;5001300;28;20036;-76
2023/05/29 09:27:13;;;;;;;13.88;7.80;;;;;;;-140.66;100.00;55571.53;5028379;28;20022;-75
2023/05/29 09:29:59;;;;;;;12.95;7.20;;;;;;;-140.66;100.00;55571.53;5016748;28;20026;-76
2023/05/29 09:32:53;;;;;;;28.08;7.60;;;;;;;-140.66;100.00;55571.53;5014781;28;20553;-76
2023/05/29 09:35:43;;;;;;;13.27;6.95;;;;;;;-140.66;100.00;55571.53;5014722;28;20030;-76
2023/05/29 09:38:32;;;;;;;13.55;6.80;;;;;;;-140.66;100.00;55571.53;5015253;28;20029;-77
2023/05/29 09:41:25;;;;;;;16.00;6.88;;;;;;;-140.66;100.00;55571.53;5016025;28;20036;-77
2023/05/29 09:44:15;;;;;;;16.13;6.47;;;;;;;-140.66;100.00;55571.53;5001454;28;20026;-76
2023/05/29 09:47:01;;;;;;;12.32;6.28;;;;;;;-140.66;100.00;55571.53;5013890;28;20022;-76
2023/05/29 09:49:47;;;;;;;11.95;6.43;;;;;;;-140.66;100.00;55571.53;5014839;28;20048;-76
2023/05/29 09:52:33;;;;;;;21.13;6.93;;;;;;;-140.66;100.00;55571.53;5015188;28;20032;-77
2023/05/29 09:55:21;;;;;;;11.32;6.20;;;;;;;-140.66;100.00;55571.53;5012590;28;20053;-81
2023/05/29 09:58:07;;;;;;;14.25;6.97;;;;;;;-140.66;100.00;55571.53;5030244;28;20021;-82
2023/05/29 10:00:53;;;;;;;9.25;5.95;;;;;;;-140.66;100.00;55571.53;5020358;28;20077;-81
2023/05/29 10:03:39;;;;;;;12.95;6.85;;;;;;;-140.66;100.00;55571.53;5014293;28;20116;-80
2023/05/29 10:06:25;;;;;;;13.15;6.47;;;;;;;-140.66;100.00;55571.53;5026446;28;20021;-81
2023/05/29 10:09:15;;;;;;;9.27;6.65;;;;;;;-140.66;100.00;55571.53;5017314;28;20029;-82
2023/05/29 10:12:04;;;;;;;17.00;6.30;;;;;;;-140.66;100.00;55571.53;5029742;28;20026;-82
2023/05/29 10:14:56;;;;;;;14.57;6.63;;;;;;;-140.66;100.00;55571.53;5030293;28;20085;-81
2023/05/29 10:17:57;;;;;;;10.95;6.68;;;;;;;-140.66;100.00;55571.53;5017316;28;20041;-81
2023/05/29 10:20:45;;;;;;;17.63;7.00;;;;;;;-140.66;100.00;55571.53;5014356;28;20021;-78
2023/05/29 10:23:31;;;;;;;11.93;7.07;;;;;;;-140.66;100.00;55571.53;5018618;28;20045;-76
2023/05/29 10:26:29;;;;;;;11.18;7.15;;;;;;;-140.66;100.00;55571.53;5018703;28;20033;-77
2023/05/29 10:29:28;;;;;;;9.07;6.70;;;;;;;-140.66;100.00;55571.53;5017652;28;20033;-77
2023/05/29 10:32:29;;;;;;;11.75;7.20;;;;;;;-140.66;100.00;55571.53;5004526;28;20378;-78
2023/05/29 10:35:31;;;;;;;12.38;7.00;;;;;;;-140.66;100.00;55571.53;5004149;28;20436;-77
2023/05/29 10:38:18;;;;;;;12.98;7.00;;;;;;;-140.66;100.00;55571.53;5002738;28;20022;-77
2023/05/29 10:41:26;;;;;;;11.90;6.55;;;;;;;-140.66;100.00;55571.53;5017645;28;20102;-77
2023/05/29 10:44:30;;;;;;;16.00;7.28;;;;;;;-140.66;100.00;55571.53;5017878;28;20026;-78
2023/05/29 10:47:23;;;;;;;9.43;6.80;;;;;;;-140.66;100.00;55571.53;5018173;28;20477;-76
2023/05/29 10:50:30;;;;;;;14.30;7.30;;;;;;;-140.66;100.00;55571.53;5017198;28;20034;-76
2023/05/29 10:53:40;;;;;;;11.98;6.95;;;;;;;-140.66;100.00;55571.53;5003108;28;20374;-78
2023/05/29 10:56:31;;;;;;;10.13;7.05;;;;;;;-140.66;100.00;55571.53;5018448;28;20161;-77
2023/05/29 10:59:20;;;;;;;15.73;6.63;;;;;;;-140.66;100.00;55571.53;5005067;28;20030;-77
2023/05/29 11:02:06;;;;;;;12.48;7.30;;;;;;;-140.66;100.00;55571.53;5016875;28;20045;-78
2023/05/29 11:05:07;;;;;;;16.92;7.18;;;;;;;-140.66;100.00;55571.53;5003968;28;20034;-78
2023/05/29 11:07:57;;;;;;;13.60;7.00;;;;;;;-140.66;100.00;55571.53;5004793;28;20029;-76
2023/05/29 11:10:52;;;;;;;13.02;6.60;;;;;;;-140.66;100.00;55571.53;5003739;28;20021;-77
2023/05/29 11:13:51;;;;;;;15.00;6.55;;;;;;;-140.66;100.00;55571.53;5004581;28;20022;-76
2023/05/29 11:16:52;;;;;;;14.90;7.55;;;;;;;-140.66;100.00;55571.53;5004189;28;20026;-76
2023/05/29 11:23:07;;;;;;;;;;;;;;;;;;;;;
2023/05/29 11:25:56;;;;;;;18.92;7.30;;;;;;;-140.66;100.00;55571.53;5018842;28;20101;-80
2023/05/29 11:28:42;;;;;;;10.35;6.72;;;;;;;-140.66;100.00;55571.53;5020879;28;20032;-81
2023/05/29 11:31:36;;;;;;;13.10;6.38;;;;;;;-140.66;100.00;55571.53;5050834;28;20025;-81
2023/05/29 11:34:27;;;;;;;9.00;6.55;;;;;;;-140.66;100.00;55571.53;5054162;28;20093;-80
2023/05/29 11:37:14;;;;;;;12.77;7.07;;;;;;;-140.66;100.00;55571.53;5039978;28;20010;-82
2023/05/29 11:40:05;;;;;;;9.75;6.88;;;;;;;-140.66;100.00;55571.53;5053912;28;20040;-82
2023/05/29 11:42:51;;;;;;;11.07;7.03;;;;;;;-140.66;100.00;55571.53;5037117;28;20063;-81
2023/05/29 11:45:37;;;;;;;10.68;6.85;;;;;;;-140.66;100.00;55571.53;5050565;28;20349;-81
2023/05/29 11:48:23;;;;;;;18.65;7.28;;;;;;;-140.66;100.00;55571.53;5051264;28;20026;-81
2023/05/29 11:51:11;;;;;;;13.68;7.20;;;;;;;-140.66;100.00;55571.53;5040363;28;20104;-81
2023/05/29 11:53:59;;;;;;;10.50;6.85;;;;;;;-140.66;100.00;55571.53;5037880;28;20029;-81
2023/05/29 11:56:47;;;;;;;12.52;6.97;;;;;;;-140.66;100.00;55571.53;5042256;28;20040;-79
2023/05/29 11:59:33;;;;;;;11.38;7.50;;;;;;;-140.66;100.00;55571.53;5022616;28;20455;-75
2023/05/29 12:02:19;;;;;;;12.48;6.65;;;;;;;-140.66;100.00;55571.53;5024684;28;20029;-79
2023/05/29 12:05:09;;;;;;;13.25;7.90;;;;;;;-140.66;100.00;55571.53;5037324;28;20025;-79
2023/05/29 12:08:00;;;;;;;13.45;7.28;;;;;;;-140.66;100.00;55571.53;5042473;28;20098;-71
2023/05/29 12:10:50;;;;;;;12.38;7.22;;;;;;;-140.66;100.00;55571.53;5040872;28;20025;-71
2023/05/29 12:13:36;;;;;;;16.48;7.80;;;;;;;-140.66;100.00;55571.53;5039875;28;20076;-71
2023/05/29 12:16:23;;;;;;;12.32;7.32;;;;;;;-140.66;100.00;55571.53;5038035;28;20049;-73
2023/05/29 12:19:09;;;;;;;10.20;7.15;;;;;;;-140.66;100.00;55571.53;5035699;28;20033;-71
2023/05/29 12:21:56;;;;;;;11.45;6.70;;;;;;;-140.66;100.00;55571.53;5021431;28;20359;-72
2023/05/29 12:24:42;;;;;;;11.90;7.18;;;;;;;-140.66;100.00;55571.53;5021673;28;20033;-72
2023/05/29 12:27:28;;;;;;;12.68;6.72;;;;;;;-140.66;100.00;55571.53;5022095;28;20021;-73
2023/05/29 12:30:20;;;;;;;10.13;6.88;;;;;;;-140.66;100.00;55571.53;5036038;28;20445;-71
2023/05/29 12:33:06;;;;;;;13.32;7.07;;;;;;;-140.66;100.00;55571.53;5035360;28;20084;-71
2023/05/29 12:35:52;;;;;;;10.70;7.05;;;;;;;-140.66;100.00;55571.53;5035579;28;20036;-73
2023/05/29 12:38:51;;;;;;;16.30;6.80;;;;;;;-140.66;100.00;55571.53;5036205;28;20033;-72